sensor_id;sensor_type;location;lat;lon;timestamp;temperature;humidity
15483;DHT22;7843;50.330;7.312;2023-05-16T00:00:59;12.50;97.60
15483;DHT22;7843;50.330;7.312;2023-05-16T00:03:26;12.30;97.20
15483;DHT22;7843;50.330;7.312;2023-05-16T00:05:53;12.30;97.70
15483;DHT22;7843;50.330;7.312;2023-05-16T00:08:21;12.20;97.80
15483;DHT22;7843;50.330;7.312;2023-05-16T00:10:48;12.20;98.00
15483;DHT22;7843;50.330;7.312;2023-05-16T00:13:15;12.20;98.10
15483;DHT22;7843;50.330;7.312;2023-05-16T00:15:41;12.20;98.40
15483;DHT22;7843;50.330;7.312;2023-05-16T00:18:09;12.20;98.70
15483;DHT22;7843;50.330;7.312;2023-05-16T00:20:40;12.20;98.50
15483;DHT22;7843;50.330;7.312;2023-05-16T00:23:07;12.20;98.50
15483;DHT22;7843;50.330;7.312;2023-05-16T00:25:34;12.20;98.70
15483;DHT22;7843;50.330;7.312;2023-05-16T00:28:01;12.10;99.00
15483;DHT22;7843;50.330;7.312;2023-05-16T00:30:28;12.10;99.20
15483;DHT22;7843;50.330;7.312;2023-05-16T00:32:55;12.20;99.30
15483;DHT22;7843;50.330;7.312;2023-05-16T00:35:22;12.10;99.30
15483;DHT22;7843;50.330;7.312;2023-05-16T00:37:49;12.20;99.20
15483;DHT22;7843;50.330;7.312;2023-05-16T00:40:16;12.10;98.90
15483;DHT22;7843;50.330;7.312;2023-05-16T00:42:43;12.10;99.40
15483;DHT22;7843;50.330;7.312;2023-05-16T00:45:10;12.10;99.40
15483;DHT22;7843;50.330;7.312;2023-05-16T00:47:37;12.10;99.40
15483;DHT22;7843;50.330;7.312;2023-05-16T00:50:04;12.10;99.40
15483;DHT22;7843;50.330;7.312;2023-05-16T00:52:31;12.10;99.50
15483;DHT22;7843;50.330;7.312;2023-05-16T00:54:59;12.10;99.40
15483;DHT22;7843;50.330;7.312;2023-05-16T00:57:26;12.00;99.70
15483;DHT22;7843;50.330;7.312;2023-05-16T00:59:53;12.00;99.70
15483;DHT22;7843;50.330;7.312;2023-05-16T01:02:20;12.00;99.60
15483;DHT22;7843;50.330;7.312;2023-05-16T01:04:47;12.00;99.80
15483;DHT22;7843;50.330;7.312;2023-05-16T01:07:15;12.00;99.90
15483;DHT22;7843;50.330;7.312;2023-05-16T01:09:41;12.00;99.90
15483;DHT22;7843;50.330;7.312;2023-05-16T01:12:15;12.00;99.90
15483;DHT22;7843;50.330;7.312;2023-05-16T01:14:51;11.90;99.90
15483;DHT22;7843;50.330;7.312;2023-05-16T01:28:15;11.80;99.90
15483;DHT22;7843;50.330;7.312;2023-05-16T01:30:43;11.80;99.90
15483;DHT22;7843;50.330;7.312;2023-05-16T01:33:10;11.70;99.90
15483;DHT22;7843;50.330;7.312;2023-05-16T01:35:45;11.60;99.90
15483;DHT22;7843;50.330;7.312;2023-05-16T01:38:29;11.60;99.90
15483;DHT22;7843;50.330;7.312;2023-05-16T01:43:51;11.50;99.90
15483;DHT22;7843;50.330;7.312;2023-05-16T01:46:26;11.50;99.90
15483;DHT22;7843;50.330;7.312;2023-05-16T01:51:49;11.40;99.90
15483;DHT22;7843;50.330;7.312;2023-05-16T01:54:18;11.30;99.90
15483;DHT22;7843;50.330;7.312;2023-05-16T01:56:53;11.40;99.90
15483;DHT22;7843;50.330;7.312;2023-05-16T01:59:20;11.30;99.90
15483;DHT22;7843;50.330;7.312;2023-05-16T02:01:47;11.20;99.90
15483;DHT22;7843;50.330;7.312;2023-05-16T02:04:14;11.20;99.90
15483;DHT22;7843;50.330;7.312;2023-05-16T02:06:41;11.20;99.90
15483;DHT22;7843;50.330;7.312;2023-05-16T02:09:08;11.20;99.90
15483;DHT22;7843;50.330;7.312;2023-05-16T02:11:34;11.10;99.90
15483;DHT22;7843;50.330;7.312;2023-05-16T02:14:02;11.10;99.90
15483;DHT22;7843;50.330;7.312;2023-05-16T02:16:29;11.10;99.90
15483;DHT22;7843;50.330;7.312;2023-05-16T02:18:56;11.00;99.90
15483;DHT22;7843;50.330;7.312;2023-05-16T02:21:23;11.10;99.90
15483;DHT22;7843;50.330;7.312;2023-05-16T02:23:50;11.00;99.90
15483;DHT22;7843;50.330;7.312;2023-05-16T02:26:17;11.00;99.90
15483;DHT22;7843;50.330;7.312;2023-05-16T02:28:44;11.00;99.90
15483;DHT22;7843;50.330;7.312;2023-05-16T02:31:11;11.00;99.90
15483;DHT22;7843;50.330;7.312;2023-05-16T02:33:38;10.90;99.90
15483;DHT22;7843;50.330;7.312;2023-05-16T02:36:05;10.90;99.90
15483;DHT22;7843;50.330;7.312;2023-05-16T02:38:32;10.90;99.90
15483;DHT22;7843;50.330;7.312;2023-05-16T02:40:58;10.90;99.90
15483;DHT22;7843;50.330;7.312;2023-05-16T02:43:25;10.90;99.90
15483;DHT22;7843;50.330;7.312;2023-05-16T02:45:52;10.80;99.90
15483;DHT22;7843;50.330;7.312;2023-05-16T02:48:19;10.80;99.90
15483;DHT22;7843;50.330;7.312;2023-05-16T02:50:46;10.90;99.90
15483;DHT22;7843;50.330;7.312;2023-05-16T02:53:12;10.90;99.90
15483;DHT22;7843;50.330;7.312;2023-05-16T02:55:42;10.80;99.90
15483;DHT22;7843;50.330;7.312;2023-05-16T02:58:09;10.80;99.90
15483;DHT22;7843;50.330;7.312;2023-05-16T03:00:35;10.80;99.90
15483;DHT22;7843;50.330;7.312;2023-05-16T03:03:02;10.80;99.90
15483;DHT22;7843;50.330;7.312;2023-05-16T03:05:29;10.90;99.90
15483;DHT22;7843;50.330;7.312;2023-05-16T03:07:57;10.90;99.90
15483;DHT22;7843;50.330;7.312;2023-05-16T03:10:23;10.80;99.90
15483;DHT22;7843;50.330;7.312;2023-05-16T03:12:50;10.80;99.90
15483;DHT22;7843;50.330;7.312;2023-05-16T03:15:17;10.80;99.90
15483;DHT22;7843;50.330;7.312;2023-05-16T03:17:43;10.90;99.90
15483;DHT22;7843;50.330;7.312;2023-05-16T03:20:10;10.80;99.90
15483;DHT22;7843;50.330;7.312;2023-05-16T03:22:37;10.90;99.90
15483;DHT22;7843;50.330;7.312;2023-05-16T03:25:05;10.80;99.90
15483;DHT22;7843;50.330;7.312;2023-05-16T03:27:33;10.80;99.90
15483;DHT22;7843;50.330;7.312;2023-05-16T03:30:00;10.80;99.90
15483;DHT22;7843;50.330;7.312;2023-05-16T03:32:26;10.80;99.90
15483;DHT22;7843;50.330;7.312;2023-05-16T03:34:53;10.80;99.90
15483;DHT22;7843;50.330;7.312;2023-05-16T03:37:20;10.70;99.90
15483;DHT22;7843;50.330;7.312;2023-05-16T03:39:46;10.70;99.90
15483;DHT22;7843;50.330;7.312;2023-05-16T03:42:13;10.60;99.90
15483;DHT22;7843;50.330;7.312;2023-05-16T03:44:40;10.60;99.90
15483;DHT22;7843;50.330;7.312;2023-05-16T03:47:07;10.60;99.90
15483;DHT22;7843;50.330;7.312;2023-05-16T03:49:33;10.50;99.90
15483;DHT22;7843;50.330;7.312;2023-05-16T03:52:00;10.40;99.90
15483;DHT22;7843;50.330;7.312;2023-05-16T03:54:27;10.40;99.90
15483;DHT22;7843;50.330;7.312;2023-05-16T03:56:54;10.40;99.90
15483;DHT22;7843;50.330;7.312;2023-05-16T03:59:23;10.30;99.90
15483;DHT22;7843;50.330;7.312;2023-05-16T04:01:50;10.40;99.90
15483;DHT22;7843;50.330;7.312;2023-05-16T04:04:16;10.30;99.90
15483;DHT22;7843;50.330;7.312;2023-05-16T04:06:43;10.20;99.90
15483;DHT22;7843;50.330;7.312;2023-05-16T04:09:10;10.20;99.90
15483;DHT22;7843;50.330;7.312;2023-05-16T04:11:36;10.20;99.90
15483;DHT22;7843;50.330;7.312;2023-05-16T04:14:04;10.10;99.90
15483;DHT22;7843;50.330;7.312;2023-05-16T04:16:30;10.00;99.90
15483;DHT22;7843;50.330;7.312;2023-05-16T04:18:57;9.90;99.90
15483;DHT22;7843;50.330;7.312;2023-05-16T04:21:24;9.90;99.90
15483;DHT22;7843;50.330;7.312;2023-05-16T04:23:51;9.90;99.90
15483;DHT22;7843;50.330;7.312;2023-05-16T04:26:18;9.80;99.90
15483;DHT22;7843;50.330;7.312;2023-05-16T04:28:47;9.80;99.90
15483;DHT22;7843;50.330;7.312;2023-05-16T04:31:14;9.70;99.90
15483;DHT22;7843;50.330;7.312;2023-05-16T04:33:41;9.60;99.90
15483;DHT22;7843;50.330;7.312;2023-05-16T04:36:08;9.60;99.90
15483;DHT22;7843;50.330;7.312;2023-05-16T04:38:34;9.60;99.90
15483;DHT22;7843;50.330;7.312;2023-05-16T04:41:01;9.50;99.90
15483;DHT22;7843;50.330;7.312;2023-05-16T04:43:29;9.50;99.90
15483;DHT22;7843;50.330;7.312;2023-05-16T04:45:56;9.50;99.90
15483;DHT22;7843;50.330;7.312;2023-05-16T04:48:24;9.40;99.90
15483;DHT22;7843;50.330;7.312;2023-05-16T04:50:51;9.40;99.90
15483;DHT22;7843;50.330;7.312;2023-05-16T04:53:18;9.40;99.90
15483;DHT22;7843;50.330;7.312;2023-05-16T04:55:44;9.30;99.90
15483;DHT22;7843;50.330;7.312;2023-05-16T04:58:11;9.30;99.90
15483;DHT22;7843;50.330;7.312;2023-05-16T05:00:38;9.30;99.90
15483;DHT22;7843;50.330;7.312;2023-05-16T05:03:05;9.40;99.90
15483;DHT22;7843;50.330;7.312;2023-05-16T05:05:32;9.40;99.90
15483;DHT22;7843;50.330;7.312;2023-05-16T05:07:59;9.40;99.90
15483;DHT22;7843;50.330;7.312;2023-05-16T05:10:26;9.40;99.90
15483;DHT22;7843;50.330;7.312;2023-05-16T05:12:53;9.30;99.90
15483;DHT22;7843;50.330;7.312;2023-05-16T05:15:20;9.30;99.90
15483;DHT22;7843;50.330;7.312;2023-05-16T05:17:47;9.30;99.90
15483;DHT22;7843;50.330;7.312;2023-05-16T05:20:13;9.30;99.90
15483;DHT22;7843;50.330;7.312;2023-05-16T05:22:40;9.40;99.90
15483;DHT22;7843;50.330;7.312;2023-05-16T05:25:07;9.40;99.90
15483;DHT22;7843;50.330;7.312;2023-05-16T05:27:34;9.30;99.90
15483;DHT22;7843;50.330;7.312;2023-05-16T05:30:02;9.30;99.90
15483;DHT22;7843;50.330;7.312;2023-05-16T05:32:29;9.40;99.90
15483;DHT22;7843;50.330;7.312;2023-05-16T05:34:56;9.40;99.90
15483;DHT22;7843;50.330;7.312;2023-05-16T05:37:23;9.40;99.90
15483;DHT22;7843;50.330;7.312;2023-05-16T05:39:50;9.40;99.90
15483;DHT22;7843;50.330;7.312;2023-05-16T05:42:17;9.30;99.90
15483;DHT22;7843;50.330;7.312;2023-05-16T05:44:44;9.20;99.90
15483;DHT22;7843;50.330;7.312;2023-05-16T05:47:11;9.20;99.90
15483;DHT22;7843;50.330;7.312;2023-05-16T05:49:38;9.20;99.90
15483;DHT22;7843;50.330;7.312;2023-05-16T05:52:04;9.10;99.90
15483;DHT22;7843;50.330;7.312;2023-05-16T05:54:32;9.10;99.90
15483;DHT22;7843;50.330;7.312;2023-05-16T05:56:59;9.00;99.90
15483;DHT22;7843;50.330;7.312;2023-05-16T05:59:25;9.00;99.90
15483;DHT22;7843;50.330;7.312;2023-05-16T06:01:53;9.10;99.90
15483;DHT22;7843;50.330;7.312;2023-05-16T06:04:20;9.10;99.90
15483;DHT22;7843;50.330;7.312;2023-05-16T06:06:47;9.00;99.90
15483;DHT22;7843;50.330;7.312;2023-05-16T06:09:13;8.80;99.90
15483;DHT22;7843;50.330;7.312;2023-05-16T06:11:41;8.90;99.90
15483;DHT22;7843;50.330;7.312;2023-05-16T06:14:08;8.90;99.90
15483;DHT22;7843;50.330;7.312;2023-05-16T06:16:35;8.90;99.90
15483;DHT22;7843;50.330;7.312;2023-05-16T06:19:02;8.90;99.90
15483;DHT22;7843;50.330;7.312;2023-05-16T06:21:29;8.80;99.90
15483;DHT22;7843;50.330;7.312;2023-05-16T06:23:56;8.80;99.90
15483;DHT22;7843;50.330;7.312;2023-05-16T06:26:22;8.70;99.90
15483;DHT22;7843;50.330;7.312;2023-05-16T06:28:50;8.70;99.90
15483;DHT22;7843;50.330;7.312;2023-05-16T06:31:16;8.70;99.90
15483;DHT22;7843;50.330;7.312;2023-05-16T06:33:43;8.80;99.90
15483;DHT22;7843;50.330;7.312;2023-05-16T06:36:10;8.70;99.90
15483;DHT22;7843;50.330;7.312;2023-05-16T06:38:37;8.80;99.90
15483;DHT22;7843;50.330;7.312;2023-05-16T06:41:03;8.80;99.90
15483;DHT22;7843;50.330;7.312;2023-05-16T06:43:30;8.80;99.90
15483;DHT22;7843;50.330;7.312;2023-05-16T06:45:57;8.80;99.90
15483;DHT22;7843;50.330;7.312;2023-05-16T06:48:23;8.70;99.90
15483;DHT22;7843;50.330;7.312;2023-05-16T06:50:50;8.70;99.90
15483;DHT22;7843;50.330;7.312;2023-05-16T06:53:20;8.50;99.90
15483;DHT22;7843;50.330;7.312;2023-05-16T06:55:47;8.50;99.90
15483;DHT22;7843;50.330;7.312;2023-05-16T06:58:13;8.50;99.90
15483;DHT22;7843;50.330;7.312;2023-05-16T07:00:40;8.50;99.90
15483;DHT22;7843;50.330;7.312;2023-05-16T07:03:07;8.50;99.90
15483;DHT22;7843;50.330;7.312;2023-05-16T07:05:34;8.60;99.90
15483;DHT22;7843;50.330;7.312;2023-05-16T07:08:01;8.60;99.90
15483;DHT22;7843;50.330;7.312;2023-05-16T07:10:28;8.60;99.90
15483;DHT22;7843;50.330;7.312;2023-05-16T07:12:55;8.60;99.90
15483;DHT22;7843;50.330;7.312;2023-05-16T07:15:22;8.60;99.90
15483;DHT22;7843;50.330;7.312;2023-05-16T07:17:48;8.60;99.90
15483;DHT22;7843;50.330;7.312;2023-05-16T07:20:16;8.70;99.90
15483;DHT22;7843;50.330;7.312;2023-05-16T07:22:43;8.70;99.90
15483;DHT22;7843;50.330;7.312;2023-05-16T07:25:09;8.80;99.90
15483;DHT22;7843;50.330;7.312;2023-05-16T07:27:41;9.00;99.90
15483;DHT22;7843;50.330;7.312;2023-05-16T07:30:11;9.10;99.90
15483;DHT22;7843;50.330;7.312;2023-05-16T07:32:39;9.20;99.90
15483;DHT22;7843;50.330;7.312;2023-05-16T07:35:06;9.30;99.90
15483;DHT22;7843;50.330;7.312;2023-05-16T07:37:33;9.40;99.90
15483;DHT22;7843;50.330;7.312;2023-05-16T07:40:00;9.60;99.90
15483;DHT22;7843;50.330;7.312;2023-05-16T07:42:27;9.80;99.90
15483;DHT22;7843;50.330;7.312;2023-05-16T07:44:54;9.90;99.90
15483;DHT22;7843;50.330;7.312;2023-05-16T07:47:21;10.00;99.90
15483;DHT22;7843;50.330;7.312;2023-05-16T07:49:47;10.00;99.90
15483;DHT22;7843;50.330;7.312;2023-05-16T07:52:14;10.20;99.90
15483;DHT22;7843;50.330;7.312;2023-05-16T07:54:41;10.60;99.90
15483;DHT22;7843;50.330;7.312;2023-05-16T07:57:08;10.80;99.80
15483;DHT22;7843;50.330;7.312;2023-05-16T07:59:34;10.80;98.70
15483;DHT22;7843;50.330;7.312;2023-05-16T08:02:01;10.90;99.50
15483;DHT22;7843;50.330;7.312;2023-05-16T08:04:28;10.90;98.20
15483;DHT22;7843;50.330;7.312;2023-05-16T08:06:55;10.80;97.40
15483;DHT22;7843;50.330;7.312;2023-05-16T08:09:22;10.60;97.00
15483;DHT22;7843;50.330;7.312;2023-05-16T08:11:48;10.40;95.90
15483;DHT22;7843;50.330;7.312;2023-05-16T08:14:15;10.20;97.20
15483;DHT22;7843;50.330;7.312;2023-05-16T08:16:42;10.20;97.80
15483;DHT22;7843;50.330;7.312;2023-05-16T08:19:09;10.30;97.70
15483;DHT22;7843;50.330;7.312;2023-05-16T08:21:36;10.20;97.40
15483;DHT22;7843;50.330;7.312;2023-05-16T08:24:03;10.10;97.70
15483;DHT22;7843;50.330;7.312;2023-05-16T08:26:31;10.20;98.30
15483;DHT22;7843;50.330;7.312;2023-05-16T08:28:58;10.40;98.70
15483;DHT22;7843;50.330;7.312;2023-05-16T08:31:25;10.70;97.40
15483;DHT22;7843;50.330;7.312;2023-05-16T08:33:52;11.00;97.20
15483;DHT22;7843;50.330;7.312;2023-05-16T08:36:18;11.00;94.10
15483;DHT22;7843;50.330;7.312;2023-05-16T08:38:46;11.00;94.60
15483;DHT22;7843;50.330;7.312;2023-05-16T08:41:13;10.80;93.50
15483;DHT22;7843;50.330;7.312;2023-05-16T08:43:39;10.60;93.40
15483;DHT22;7843;50.330;7.312;2023-05-16T08:46:07;10.50;93.80
15483;DHT22;7843;50.330;7.312;2023-05-16T08:48:35;10.50;92.20
15483;DHT22;7843;50.330;7.312;2023-05-16T08:51:05;10.70;91.80
15483;DHT22;7843;50.330;7.312;2023-05-16T08:53:39;10.80;92.40
15483;DHT22;7843;50.330;7.312;2023-05-16T08:56:12;11.00;90.30
15483;DHT22;7843;50.330;7.312;2023-05-16T08:58:40;11.30;91.20
15483;DHT22;7843;50.330;7.312;2023-05-16T09:01:07;11.40;90.80
15483;DHT22;7843;50.330;7.312;2023-05-16T09:03:38;11.50;90.90
15483;DHT22;7843;50.330;7.312;2023-05-16T09:06:06;11.50;89.50
15483;DHT22;7843;50.330;7.312;2023-05-16T09:08:33;11.60;89.80
15483;DHT22;7843;50.330;7.312;2023-05-16T09:11:01;11.90;88.40
15483;DHT22;7843;50.330;7.312;2023-05-16T09:13:28;12.10;87.30
15483;DHT22;7843;50.330;7.312;2023-05-16T09:16:11;12.10;88.50
15483;DHT22;7843;50.330;7.312;2023-05-16T09:18:41;12.30;87.60
15483;DHT22;7843;50.330;7.312;2023-05-16T09:21:11;12.50;85.90
15483;DHT22;7843;50.330;7.312;2023-05-16T09:23:38;12.60;86.90
15483;DHT22;7843;50.330;7.312;2023-05-16T09:26:06;12.70;83.80
15483;DHT22;7843;50.330;7.312;2023-05-16T09:28:39;12.70;86.00
15483;DHT22;7843;50.330;7.312;2023-05-16T09:31:26;12.70;83.50
15483;DHT22;7843;50.330;7.312;2023-05-16T09:33:56;12.80;83.40
15483;DHT22;7843;50.330;7.312;2023-05-16T09:36:23;13.00;84.50
15483;DHT22;7843;50.330;7.312;2023-05-16T09:38:51;13.10;82.20
15483;DHT22;7843;50.330;7.312;2023-05-16T09:41:20;13.20;82.60
15483;DHT22;7843;50.330;7.312;2023-05-16T09:43:47;13.60;84.20
15483;DHT22;7843;50.330;7.312;2023-05-16T09:46:14;13.90;82.10
15483;DHT22;7843;50.330;7.312;2023-05-16T09:48:44;14.00;81.40
15483;DHT22;7843;50.330;7.312;2023-05-16T09:51:12;13.90;80.30
15483;DHT22;7843;50.330;7.312;2023-05-16T09:53:40;13.80;80.30
15483;DHT22;7843;50.330;7.312;2023-05-16T09:56:11;13.80;78.80
15483;DHT22;7843;50.330;7.312;2023-05-16T09:58:39;13.90;79.00
15483;DHT22;7843;50.330;7.312;2023-05-16T10:01:08;14.10;77.60
15483;DHT22;7843;50.330;7.312;2023-05-16T10:03:37;14.00;76.10
15483;DHT22;7843;50.330;7.312;2023-05-16T10:06:05;14.30;78.70
15483;DHT22;7843;50.330;7.312;2023-05-16T10:08:35;14.20;80.10
15483;DHT22;7843;50.330;7.312;2023-05-16T10:11:04;14.00;78.20
15483;DHT22;7843;50.330;7.312;2023-05-16T10:13:33;13.80;80.10
15483;DHT22;7843;50.330;7.312;2023-05-16T10:16:09;13.70;79.00
15483;DHT22;7843;50.330;7.312;2023-05-16T10:18:38;13.90;80.20
15483;DHT22;7843;50.330;7.312;2023-05-16T10:21:07;14.30;76.70
15483;DHT22;7843;50.330;7.312;2023-05-16T10:23:39;14.90;75.10
15483;DHT22;7843;50.330;7.312;2023-05-16T10:26:07;14.90;71.10
15483;DHT22;7843;50.330;7.312;2023-05-16T10:28:35;14.90;74.50
15483;DHT22;7843;50.330;7.312;2023-05-16T10:31:02;14.80;73.30
15483;DHT22;7843;50.330;7.312;2023-05-16T10:33:29;15.20;74.50
15483;DHT22;7843;50.330;7.312;2023-05-16T10:35:56;15.60;72.30
15483;DHT22;7843;50.330;7.312;2023-05-16T10:38:25;16.00;72.90
15483;DHT22;7843;50.330;7.312;2023-05-16T10:40:52;16.00;73.70
15483;DHT22;7843;50.330;7.312;2023-05-16T10:43:27;15.50;73.00
15483;DHT22;7843;50.330;7.312;2023-05-16T10:45:58;15.00;76.90
15483;DHT22;7843;50.330;7.312;2023-05-16T10:48:35;14.50;73.80
15483;DHT22;7843;50.330;7.312;2023-05-16T10:51:02;14.90;74.80
15483;DHT22;7843;50.330;7.312;2023-05-16T10:53:35;15.50;75.10
15483;DHT22;7843;50.330;7.312;2023-05-16T11:01:29;16.90;73.40
15483;DHT22;7843;50.330;7.312;2023-05-16T11:06:23;17.60;67.90
15483;DHT22;7843;50.330;7.312;2023-05-16T11:12:00;18.30;64.30
15483;DHT22;7843;50.330;7.312;2023-05-16T11:14:37;18.60;63.00
15483;DHT22;7843;50.330;7.312;2023-05-16T11:17:22;19.00;61.40
15483;DHT22;7843;50.330;7.312;2023-05-16T11:19:54;19.30;62.80
15483;DHT22;7843;50.330;7.312;2023-05-16T11:22:21;19.60;61.50
15483;DHT22;7843;50.330;7.312;2023-05-16T11:24:53;19.70;61.90
15483;DHT22;7843;50.330;7.312;2023-05-16T11:27:30;19.50;61.20
15483;DHT22;7843;50.330;7.312;2023-05-16T11:32:33;18.80;63.90
15483;DHT22;7843;50.330;7.312;2023-05-16T11:35:04;19.60;64.20
15483;DHT22;7843;50.330;7.312;2023-05-16T11:37:31;20.30;61.30
15483;DHT22;7843;50.330;7.312;2023-05-16T11:40:05;20.10;59.80
15483;DHT22;7843;50.330;7.312;2023-05-16T11:42:42;20.50;60.50
15483;DHT22;7843;50.330;7.312;2023-05-16T11:45:10;20.40;60.40
15483;DHT22;7843;50.330;7.312;2023-05-16T11:47:41;20.20;60.40
15483;DHT22;7843;50.330;7.312;2023-05-16T11:50:14;19.70;62.00
15483;DHT22;7843;50.330;7.312;2023-05-16T11:52:43;18.70;62.80
15483;DHT22;7843;50.330;7.312;2023-05-16T11:55:11;19.40;63.20
15483;DHT22;7843;50.330;7.312;2023-05-16T11:57:40;20.60;61.20
15483;DHT22;7843;50.330;7.312;2023-05-16T12:00:14;21.40;58.30
15483;DHT22;7843;50.330;7.312;2023-05-16T12:02:43;22.20;57.40
15483;DHT22;7843;50.330;7.312;2023-05-16T12:05:10;21.90;57.10
15483;DHT22;7843;50.330;7.312;2023-05-16T12:07:37;20.80;57.20
15483;DHT22;7843;50.330;7.312;2023-05-16T12:10:08;19.90;59.50
15483;DHT22;7843;50.330;7.312;2023-05-16T12:12:37;19.40;59.60
15483;DHT22;7843;50.330;7.312;2023-05-16T12:15:06;19.80;61.30
15483;DHT22;7843;50.330;7.312;2023-05-16T12:17:34;19.80;58.40
15483;DHT22;7843;50.330;7.312;2023-05-16T12:20:03;21.00;57.60
15483;DHT22;7843;50.330;7.312;2023-05-16T12:22:33;22.10;57.10
15483;DHT22;7843;50.330;7.312;2023-05-16T12:25:21;23.00;55.30
15483;DHT22;7843;50.330;7.312;2023-05-16T12:27:48;22.30;53.10
15483;DHT22;7843;50.330;7.312;2023-05-16T12:30:16;22.20;55.60
15483;DHT22;7843;50.330;7.312;2023-05-16T12:32:44;22.50;54.00
15483;DHT22;7843;50.330;7.312;2023-05-16T12:35:10;23.10;55.60
15483;DHT22;7843;50.330;7.312;2023-05-16T12:37:39;23.70;54.30
15483;DHT22;7843;50.330;7.312;2023-05-16T12:40:09;24.60;51.70
15483;DHT22;7843;50.330;7.312;2023-05-16T12:42:38;24.80;49.00
15483;DHT22;7843;50.330;7.312;2023-05-16T12:45:05;24.60;49.50
15483;DHT22;7843;50.330;7.312;2023-05-16T12:47:39;25.00;50.20
15483;DHT22;7843;50.330;7.312;2023-05-16T12:50:09;25.30;51.40
15483;DHT22;7843;50.330;7.312;2023-05-16T12:52:37;24.40;50.90
15483;DHT22;7843;50.330;7.312;2023-05-16T12:55:12;23.30;50.70
15483;DHT22;7843;50.330;7.312;2023-05-16T12:57:41;22.00;51.80
15483;DHT22;7843;50.330;7.312;2023-05-16T13:00:12;20.70;55.60
15483;DHT22;7843;50.330;7.312;2023-05-16T13:02:39;20.20;57.40
15483;DHT22;7843;50.330;7.312;2023-05-16T13:05:07;21.10;54.20
15483;DHT22;7843;50.330;7.312;2023-05-16T13:07:35;20.50;55.40
15483;DHT22;7843;50.330;7.312;2023-05-16T13:10:02;19.50;57.60
15483;DHT22;7843;50.330;7.312;2023-05-16T13:12:29;19.00;60.20
15483;DHT22;7843;50.330;7.312;2023-05-16T13:14:56;19.20;60.50
15483;DHT22;7843;50.330;7.312;2023-05-16T13:17:23;20.80;59.70
15483;DHT22;7843;50.330;7.312;2023-05-16T13:19:50;21.30;55.70
15483;DHT22;7843;50.330;7.312;2023-05-16T13:22:17;21.40;55.00
15483;DHT22;7843;50.330;7.312;2023-05-16T13:24:43;21.50;55.30
15483;DHT22;7843;50.330;7.312;2023-05-16T13:27:10;20.90;57.10
15483;DHT22;7843;50.330;7.312;2023-05-16T13:29:37;20.00;57.60
15483;DHT22;7843;50.330;7.312;2023-05-16T13:32:04;19.10;58.30
15483;DHT22;7843;50.330;7.312;2023-05-16T13:34:31;18.70;62.20
15483;DHT22;7843;50.330;7.312;2023-05-16T13:36:58;19.30;60.80
15483;DHT22;7843;50.330;7.312;2023-05-16T13:39:25;20.30;60.40
15483;DHT22;7843;50.330;7.312;2023-05-16T13:41:52;21.60;58.60
15483;DHT22;7843;50.330;7.312;2023-05-16T13:44:19;22.50;55.50
15483;DHT22;7843;50.330;7.312;2023-05-16T13:46:47;23.80;53.80
15483;DHT22;7843;50.330;7.312;2023-05-16T13:49:13;24.60;52.30
15483;DHT22;7843;50.330;7.312;2023-05-16T13:51:40;25.20;52.60
15483;DHT22;7843;50.330;7.312;2023-05-16T13:54:07;24.60;51.40
15483;DHT22;7843;50.330;7.312;2023-05-16T13:56:34;23.40;52.00
15483;DHT22;7843;50.330;7.312;2023-05-16T13:59:01;21.80;54.30
15483;DHT22;7843;50.330;7.312;2023-05-16T14:01:29;21.20;59.40
15483;DHT22;7843;50.330;7.312;2023-05-16T14:03:56;20.70;59.00
15483;DHT22;7843;50.330;7.312;2023-05-16T14:06:24;20.10;59.70
15483;DHT22;7843;50.330;7.312;2023-05-16T14:08:50;20.30;60.50
15483;DHT22;7843;50.330;7.312;2023-05-16T14:11:17;19.80;60.40
15483;DHT22;7843;50.330;7.312;2023-05-16T14:13:45;19.60;60.10
15483;DHT22;7843;50.330;7.312;2023-05-16T14:16:12;20.20;58.70
15483;DHT22;7843;50.330;7.312;2023-05-16T14:18:39;20.80;59.50
15483;DHT22;7843;50.330;7.312;2023-05-16T14:21:06;21.00;57.40
15483;DHT22;7843;50.330;7.312;2023-05-16T14:23:32;20.90;58.50
15483;DHT22;7843;50.330;7.312;2023-05-16T14:25:59;20.10;58.20
15483;DHT22;7843;50.330;7.312;2023-05-16T14:28:26;19.50;60.00
15483;DHT22;7843;50.330;7.312;2023-05-16T14:30:53;19.00;62.00
15483;DHT22;7843;50.330;7.312;2023-05-16T14:33:20;18.40;63.80
15483;DHT22;7843;50.330;7.312;2023-05-16T14:35:47;18.10;63.60
15483;DHT22;7843;50.330;7.312;2023-05-16T14:38:15;18.60;64.00
15483;DHT22;7843;50.330;7.312;2023-05-16T14:40:42;19.40;61.70
15483;DHT22;7843;50.330;7.312;2023-05-16T14:43:09;19.70;61.30
15483;DHT22;7843;50.330;7.312;2023-05-16T14:45:38;20.30;59.70
15483;DHT22;7843;50.330;7.312;2023-05-16T14:48:05;20.50;58.80
15483;DHT22;7843;50.330;7.312;2023-05-16T14:50:33;19.90;60.90
15483;DHT22;7843;50.330;7.312;2023-05-16T14:53:00;19.70;62.00
15483;DHT22;7843;50.330;7.312;2023-05-16T14:55:27;19.90;62.30
15483;DHT22;7843;50.330;7.312;2023-05-16T14:57:54;20.40;61.30
15483;DHT22;7843;50.330;7.312;2023-05-16T15:00:25;20.80;60.80
15483;DHT22;7843;50.330;7.312;2023-05-16T15:02:52;20.80;61.00
15483;DHT22;7843;50.330;7.312;2023-05-16T15:05:19;20.90;60.20
15483;DHT22;7843;50.330;7.312;2023-05-16T15:07:46;20.90;60.10
15483;DHT22;7843;50.330;7.312;2023-05-16T15:10:14;20.80;61.10
15483;DHT22;7843;50.330;7.312;2023-05-16T15:12:41;20.70;59.80
15483;DHT22;7843;50.330;7.312;2023-05-16T15:15:09;20.30;59.80
15483;DHT22;7843;50.330;7.312;2023-05-16T15:17:40;20.30;59.20
15483;DHT22;7843;50.330;7.312;2023-05-16T15:20:09;20.40;59.80
15483;DHT22;7843;50.330;7.312;2023-05-16T15:22:37;20.30;59.70
15483;DHT22;7843;50.330;7.312;2023-05-16T15:25:06;20.30;61.00
15483;DHT22;7843;50.330;7.312;2023-05-16T15:27:33;20.20;60.90
15483;DHT22;7843;50.330;7.312;2023-05-16T15:30:00;19.90;61.10
15483;DHT22;7843;50.330;7.312;2023-05-16T15:32:26;20.10;61.30
15483;DHT22;7843;50.330;7.312;2023-05-16T15:34:53;20.30;60.10
15483;DHT22;7843;50.330;7.312;2023-05-16T15:37:20;20.10;59.90
15483;DHT22;7843;50.330;7.312;2023-05-16T15:39:47;20.10;59.80
15483;DHT22;7843;50.330;7.312;2023-05-16T15:42:14;20.20;59.50
15483;DHT22;7843;50.330;7.312;2023-05-16T15:44:41;19.90;59.80
15483;DHT22;7843;50.330;7.312;2023-05-16T15:47:07;19.90;59.00
15483;DHT22;7843;50.330;7.312;2023-05-16T15:49:35;19.90;58.30
15483;DHT22;7843;50.330;7.312;2023-05-16T15:52:03;19.70;59.60
15483;DHT22;7843;50.330;7.312;2023-05-16T15:54:30;19.40;58.80
15483;DHT22;7843;50.330;7.312;2023-05-16T15:56:57;19.40;57.90
15483;DHT22;7843;50.330;7.312;2023-05-16T15:59:23;19.20;58.90
15483;DHT22;7843;50.330;7.312;2023-05-16T16:01:50;19.40;60.10
15483;DHT22;7843;50.330;7.312;2023-05-16T16:04:17;19.40;60.80
15483;DHT22;7843;50.330;7.312;2023-05-16T16:06:47;19.30;60.90
15483;DHT22;7843;50.330;7.312;2023-05-16T16:09:14;19.20;60.60
15483;DHT22;7843;50.330;7.312;2023-05-16T16:11:41;19.30;60.70
15483;DHT22;7843;50.330;7.312;2023-05-16T16:14:08;19.00;59.60
15483;DHT22;7843;50.330;7.312;2023-05-16T16:16:36;18.90;60.70
15483;DHT22;7843;50.330;7.312;2023-05-16T16:19:05;18.70;60.40
15483;DHT22;7843;50.330;7.312;2023-05-16T16:21:33;18.70;61.60
15483;DHT22;7843;50.330;7.312;2023-05-16T16:23:59;18.70;61.50